createdAt,value
2018-09-11T00:00:51.016Z,101359.00
2018-09-11T00:03:20.456Z,101348.00
2018-09-11T00:05:50.682Z,101349.00
2018-09-11T00:08:20.589Z,101364.00
2018-09-11T00:10:51.127Z,101356.00
2018-09-11T00:13:20.736Z,101355.00
2018-09-11T00:15:50.720Z,101343.00
2018-09-11T00:18:20.470Z,101347.00
2018-09-11T00:20:50.371Z,101343.00
2018-09-11T00:23:19.818Z,101345.00
2018-09-11T00:25:49.434Z,101349.00
2018-09-11T00:28:19.499Z,101330.00
2018-09-11T00:30:49.831Z,101330.00
2018-09-11T00:33:19.721Z,101329.00
2018-09-11T00:35:49.432Z,101331.00
2018-09-11T00:38:18.884Z,101323.00
2018-09-11T00:40:48.774Z,101317.00
2018-09-11T00:43:18.411Z,101328.00
2018-09-11T00:45:48.162Z,101306.00
2018-09-11T00:48:18.103Z,101311.00
2018-09-11T00:50:47.678Z,101306.00
2018-09-11T00:53:17.833Z,101296.00
2018-09-11T00:55:48.249Z,101291.00
2018-09-11T00:58:18.067Z,101296.00
2018-09-11T01:00:47.879Z,101290.00
2018-09-11T01:03:17.642Z,101279.00
2018-09-11T01:05:47.295Z,101279.00
2018-09-11T01:08:17.210Z,101287.00
2018-09-11T01:10:47.135Z,101286.00
2018-09-11T01:13:17.187Z,101286.00
2018-09-11T01:15:46.943Z,101294.00
2018-09-11T01:18:17.031Z,101284.00
2018-09-11T01:20:47.252Z,101281.00
2018-09-11T01:23:17.251Z,101278.00
2018-09-11T01:25:47.139Z,101274.00
2018-09-11T01:28:16.797Z,101274.00
2018-09-11T01:30:46.561Z,101277.00
2018-09-11T01:33:16.405Z,101281.00
2018-09-11T01:35:46.725Z,101278.00
2018-09-11T01:38:16.657Z,101286.00
2018-09-11T01:40:46.573Z,101283.00
2018-09-11T01:43:16.666Z,101286.00
2018-09-11T01:45:46.636Z,101282.00
2018-09-11T01:48:17.371Z,101289.00
2018-09-11T01:50:47.120Z,101284.00
2018-09-11T01:53:16.744Z,101297.00
2018-09-11T01:55:46.997Z,101287.00
2018-09-11T01:58:16.992Z,101298.00
2018-09-11T02:00:46.746Z,101295.00
2018-09-11T02:03:17.259Z,101300.00
2018-09-11T02:05:47.184Z,101304.00
2018-09-11T02:08:16.954Z,101307.00
2018-09-11T02:10:46.744Z,101301.00
2018-09-11T02:13:16.358Z,101300.00
2018-09-11T02:15:46.240Z,101306.00
2018-09-11T02:18:16.148Z,101303.00
2018-09-11T02:20:46.104Z,101313.00
2018-09-11T02:23:16.160Z,101312.00
2018-09-11T02:25:45.638Z,101311.00
2018-09-11T02:28:15.550Z,101308.00
2018-09-11T02:30:45.171Z,101306.00
2018-09-11T02:33:14.742Z,101311.00
2018-09-11T02:35:45.047Z,101308.00
2018-09-11T02:38:15.077Z,101316.00
2018-09-11T02:40:44.904Z,101311.00
2018-09-11T02:43:15.228Z,101312.00
2018-09-11T02:45:44.629Z,101306.00
2018-09-11T02:48:14.580Z,101320.00
2018-09-11T02:50:44.348Z,101311.00
2018-09-11T02:53:13.878Z,101306.00
2018-09-11T02:55:43.364Z,101299.00
2018-09-11T02:58:13.702Z,101315.00
2018-09-11T03:00:43.214Z,101307.00
2018-09-11T03:03:13.135Z,101311.00
2018-09-11T03:05:43.360Z,101312.00
2018-09-11T03:08:12.632Z,101322.00
2018-09-11T03:10:42.150Z,101315.00
2018-09-11T03:13:12.302Z,101315.00
2018-09-11T03:15:42.022Z,101316.00
2018-09-11T03:18:11.614Z,101316.00
2018-09-11T03:20:41.300Z,101311.00
2018-09-11T03:23:11.142Z,101316.00
2018-09-11T03:25:40.664Z,101315.00
2018-09-11T03:28:10.350Z,101312.00
2018-09-11T03:30:39.854Z,101316.00
2018-09-11T03:33:09.674Z,101318.00
2018-09-11T03:35:39.376Z,101319.00
2018-09-11T03:38:09.336Z,101316.00
2018-09-11T03:40:39.112Z,101317.00
2018-09-11T03:43:08.910Z,101325.00
2018-09-11T03:45:42.410Z,101314.00
2018-09-11T03:48:12.348Z,101323.00
2018-09-11T03:50:42.260Z,101315.00
2018-09-11T03:53:12.102Z,101319.00
2018-09-11T03:55:42.175Z,101312.00
2018-09-11T03:58:12.012Z,101321.00
2018-09-11T04:00:42.860Z,101316.00
2018-09-11T04:03:13.089Z,101301.00
2018-09-11T04:05:43.652Z,101306.00
2018-09-11T04:08:13.282Z,101306.00
2018-09-11T04:10:42.763Z,101305.00
2018-09-11T04:13:12.211Z,101309.00
2018-09-11T04:15:42.125Z,101303.00
2018-09-11T04:18:11.892Z,101305.00
2018-09-11T04:20:41.320Z,101298.00
2018-09-11T04:23:10.827Z,101285.00
2018-09-11T04:25:40.007Z,101285.00
2018-09-11T04:28:09.456Z,101289.00
2018-09-11T04:30:38.888Z,101280.00
2018-09-11T04:33:08.024Z,101285.00
2018-09-11T04:35:37.527Z,101286.00
2018-09-11T04:38:07.063Z,101280.00
2018-09-11T04:40:36.301Z,101278.00
2018-09-11T04:43:05.571Z,101276.00
2018-09-11T04:45:34.718Z,101281.00
2018-09-11T04:48:04.078Z,101284.00
2018-09-11T04:50:33.493Z,101284.00
2018-09-11T04:53:03.097Z,101272.00
2018-09-11T04:55:32.428Z,101264.00
2018-09-11T04:58:02.236Z,101271.00
2018-09-11T05:00:32.578Z,101265.00
2018-09-11T05:03:02.493Z,101258.00
2018-09-11T05:05:32.469Z,101258.00
2018-09-11T05:08:02.254Z,101250.00
2018-09-11T05:10:32.819Z,101265.00
2018-09-11T05:13:02.644Z,101260.00
2018-09-11T05:15:33.046Z,101254.00
2018-09-11T05:18:02.970Z,101262.00
2018-09-11T05:20:33.428Z,101259.00
2018-09-11T05:23:03.395Z,101254.00
2018-09-11T05:25:33.420Z,101254.00
2018-09-11T05:28:03.509Z,101258.00
2018-09-11T05:30:33.159Z,101259.00
2018-09-11T05:33:10.495Z,101247.00
2018-09-11T05:35:46.030Z,101241.00
2018-09-11T05:38:23.460Z,101244.00
2018-09-11T05:40:59.411Z,101232.00
2018-09-11T05:43:30.178Z,101230.00
2018-09-11T05:46:00.686Z,101224.00
2018-09-11T05:48:30.670Z,101232.00
2018-09-11T05:51:01.644Z,101242.00
2018-09-11T05:53:32.110Z,101244.00
2018-09-11T05:56:03.188Z,101243.00
2018-09-11T05:58:35.030Z,101253.00
2018-09-11T06:01:05.516Z,101245.00
2018-09-11T06:03:36.638Z,101259.00
2018-09-11T06:06:07.020Z,101259.00
2018-09-11T06:08:37.502Z,101259.00
2018-09-11T06:11:07.848Z,101260.00
2018-09-11T06:13:39.059Z,101258.00
2018-09-11T06:16:09.681Z,101253.00
2018-09-11T06:18:39.804Z,101249.00
2018-09-11T06:21:10.402Z,101233.00
2018-09-11T06:23:41.006Z,101249.00
2018-09-11T06:26:11.034Z,101253.00
2018-09-11T06:28:40.750Z,101244.00
2018-09-11T06:31:10.867Z,101255.00
2018-09-11T06:33:40.415Z,101256.00
2018-09-11T06:36:10.830Z,101255.00
2018-09-11T06:38:41.521Z,101245.00
2018-09-11T06:41:11.624Z,101248.00
2018-09-11T06:43:41.550Z,101255.00
2018-09-11T06:46:12.044Z,101248.00
2018-09-11T06:48:42.636Z,101247.00
2018-09-11T06:51:13.380Z,101255.00
2018-09-11T06:53:43.327Z,101248.00
2018-09-11T06:56:14.726Z,101237.00
2018-09-11T06:58:45.646Z,101249.00
2018-09-11T07:01:16.543Z,101240.00
2018-09-11T07:03:47.208Z,101253.00
2018-09-11T07:06:18.170Z,101257.00
2018-09-11T07:08:49.728Z,101253.00
2018-09-11T07:11:19.930Z,101257.00
2018-09-11T07:13:50.345Z,101256.00
2018-09-11T07:16:21.994Z,101265.00
2018-09-11T07:18:53.307Z,101264.00
2018-09-11T07:21:24.237Z,101257.00
2018-09-11T07:23:54.291Z,101264.00
2018-09-11T07:26:24.936Z,101259.00
2018-09-11T07:28:55.154Z,101256.00
2018-09-11T07:31:25.911Z,101262.00
2018-09-11T07:33:55.477Z,101246.00
2018-09-11T07:36:25.873Z,101263.00
2018-09-11T07:38:56.327Z,101268.00
2018-09-11T07:41:26.666Z,101270.00
2018-09-11T07:43:56.911Z,101271.00
2018-09-11T07:46:28.180Z,101260.00
2018-09-11T07:48:59.718Z,101239.00
2018-09-11T07:51:29.886Z,101238.00
2018-09-11T07:54:01.815Z,101232.00
2018-09-11T07:56:32.725Z,101240.00
2018-09-11T07:59:03.350Z,101238.00
2018-09-11T08:01:33.459Z,101228.00
2018-09-11T08:04:03.713Z,101234.00
2018-09-11T08:06:33.353Z,101252.00
2018-09-11T08:09:03.017Z,101251.00
2018-09-11T08:11:33.753Z,101259.00
2018-09-11T08:14:03.347Z,101253.00
2018-09-11T08:16:33.347Z,101256.00
2018-09-11T08:19:04.165Z,101265.00
2018-09-11T08:21:34.365Z,101261.00
2018-09-11T08:24:05.031Z,101259.00
2018-09-11T08:26:35.257Z,101251.00
2018-09-11T08:29:05.342Z,101253.00
2018-09-11T08:31:35.869Z,101254.00
2018-09-11T08:34:05.630Z,101263.00
2018-09-11T08:36:36.683Z,101255.00
2018-09-11T08:39:09.882Z,101252.00
2018-09-11T08:41:40.367Z,101245.00
2018-09-11T08:44:10.738Z,101245.00
2018-09-11T08:46:40.780Z,101237.00
2018-09-11T08:49:11.014Z,101248.00
2018-09-11T08:51:40.754Z,101249.00
2018-09-11T08:54:11.652Z,101250.00
2018-09-11T08:56:42.496Z,101258.00
2018-09-11T08:59:13.044Z,101260.00
2018-09-11T09:01:43.542Z,101254.00
2018-09-11T09:04:14.061Z,101262.00
2018-09-11T09:06:44.078Z,101253.00
2018-09-11T09:09:14.128Z,101248.00
2018-09-11T09:11:44.023Z,101253.00
2018-09-11T09:14:15.258Z,101249.00
2018-09-11T09:16:45.328Z,101241.00
2018-09-11T09:19:15.718Z,101252.00
2018-09-11T09:21:46.596Z,101236.00
2018-09-11T09:24:17.208Z,101243.00
2018-09-11T09:26:47.688Z,101244.00
2018-09-11T09:29:18.168Z,101250.00
2018-09-11T09:31:48.527Z,101232.00
2018-09-11T09:34:18.444Z,101245.00
2018-09-11T09:36:49.228Z,101246.00
2018-09-11T09:39:18.612Z,101245.00
2018-09-11T09:41:48.350Z,101242.00
2018-09-11T09:44:18.118Z,101246.00
2018-09-11T09:46:48.356Z,101240.00
2018-09-11T09:49:18.798Z,101240.00
2018-09-11T09:51:49.128Z,101236.00
2018-09-11T09:54:19.572Z,101232.00
2018-09-11T09:56:49.872Z,101238.00
2018-09-11T09:59:20.259Z,101243.00
2018-09-11T10:01:55.385Z,101238.00
2018-09-11T10:04:26.483Z,101235.00
2018-09-11T10:06:56.755Z,101242.00
2018-09-11T10:09:27.062Z,101221.00
2018-09-11T10:11:57.283Z,101241.00
2018-09-11T10:14:27.784Z,101235.00
2018-09-11T10:16:57.831Z,101230.00
2018-09-11T10:19:28.100Z,101223.00
2018-09-11T10:21:58.588Z,101226.00
2018-09-11T10:24:29.160Z,101226.00
2018-09-11T10:26:59.275Z,101227.00
2018-09-11T10:29:29.719Z,101233.00
2018-09-11T10:32:00.348Z,101225.00
2018-09-11T10:34:31.287Z,101234.00
2018-09-11T10:37:01.734Z,101228.00
2018-09-11T10:39:32.189Z,101212.00
2018-09-11T10:42:02.364Z,101204.00
2018-09-11T10:44:32.891Z,101199.00
2018-09-11T10:47:02.871Z,101190.00
2018-09-11T10:49:33.024Z,101180.00
2018-09-11T10:52:04.260Z,101178.00
2018-09-11T10:54:34.590Z,101187.00
2018-09-11T10:57:04.739Z,101178.00
2018-09-11T10:59:35.160Z,101197.00
2018-09-11T11:02:05.644Z,101198.00
2018-09-11T11:04:36.869Z,101195.00
2018-09-11T11:07:06.640Z,101190.00
2018-09-11T11:09:36.705Z,101192.00
2018-09-11T11:12:06.730Z,101190.00
2018-09-11T11:14:36.630Z,101188.00
2018-09-11T11:17:07.200Z,101189.00
2018-09-11T11:19:37.746Z,101196.00
2018-09-11T11:22:08.172Z,101198.00
2018-09-11T11:24:38.266Z,101187.00
2018-09-11T11:27:07.984Z,101179.00
2018-09-11T11:29:38.442Z,101183.00
2018-09-11T11:32:08.600Z,101188.00
2018-09-11T11:34:38.523Z,101182.00
2018-09-11T11:37:09.460Z,101176.00
2018-09-11T11:39:39.294Z,101190.00
2018-09-11T11:42:09.270Z,101185.00
2018-09-11T11:44:39.460Z,101178.00
2018-09-11T11:47:09.422Z,101188.00
2018-09-11T11:49:40.243Z,101187.00
2018-09-11T11:52:10.129Z,101191.00
2018-09-11T11:54:41.358Z,101197.00
2018-09-11T11:57:11.547Z,101187.00
2018-09-11T11:59:41.912Z,101191.00
2018-09-11T12:02:12.216Z,101190.00
2018-09-11T12:04:42.756Z,101189.00
2018-09-11T12:07:13.042Z,101186.00
2018-09-11T12:09:43.185Z,101184.00
2018-09-11T12:12:14.149Z,101186.00
2018-09-11T12:14:44.123Z,101170.00
2018-09-11T12:17:14.182Z,101168.00
2018-09-11T12:19:45.414Z,101169.00
2018-09-11T12:22:15.946Z,101169.00
2018-09-11T12:24:45.944Z,101164.00
2018-09-11T12:27:16.530Z,101163.00
2018-09-11T12:29:46.648Z,101170.00
2018-09-11T12:32:16.632Z,101169.00
2018-09-11T12:34:46.326Z,101169.00
2018-09-11T12:37:15.967Z,101170.00
2018-09-11T12:39:46.374Z,101170.00
2018-09-11T12:42:16.725Z,101163.00
2018-09-11T12:44:46.458Z,101163.00
2018-09-11T12:47:16.792Z,101167.00
2018-09-11T12:49:46.886Z,101167.00
2018-09-11T12:52:17.405Z,101154.00
2018-09-11T12:54:47.460Z,101155.00
2018-09-11T12:57:17.559Z,101160.00
2018-09-11T12:59:47.521Z,101160.00
2018-09-11T13:02:17.968Z,101159.00
2018-09-11T13:04:47.994Z,101172.00
2018-09-11T13:07:18.071Z,101179.00
2018-09-11T13:09:48.265Z,101164.00
2018-09-11T13:12:18.190Z,101165.00
2018-09-11T13:14:48.180Z,101173.00
2018-09-11T13:17:18.309Z,101160.00
2018-09-11T13:19:49.268Z,101162.00
2018-09-11T13:22:24.509Z,101171.00
2018-09-11T13:24:54.876Z,101156.00
2018-09-11T13:27:25.131Z,101164.00
2018-09-11T13:29:54.968Z,101164.00
2018-09-11T13:32:25.101Z,101164.00
2018-09-11T13:34:55.184Z,101154.00
2018-09-11T13:37:25.515Z,101158.00
2018-09-11T13:39:55.432Z,101165.00
2018-09-11T13:42:26.890Z,101165.00
2018-09-11T13:44:57.959Z,101167.00
2018-09-11T13:47:28.440Z,101159.00
2018-09-11T13:49:58.424Z,101162.00
2018-09-11T13:52:28.071Z,101152.00
2018-09-11T13:54:57.778Z,101146.00
2018-09-11T13:57:28.244Z,101150.00
2018-09-11T13:59:58.343Z,101141.00
2018-09-11T14:02:28.144Z,101154.00
2018-09-11T14:04:57.843Z,101143.00
2018-09-11T14:07:28.085Z,101143.00
2018-09-11T14:09:58.077Z,101152.00
2018-09-11T14:12:27.784Z,101145.00
2018-09-11T14:14:58.737Z,101141.00
2018-09-11T14:17:29.096Z,101129.00
2018-09-11T14:19:58.902Z,101137.00
2018-09-11T14:22:29.413Z,101125.00
2018-09-11T14:24:59.352Z,101117.00
2018-09-11T14:27:30.067Z,101124.00
2018-09-11T14:30:00.454Z,101132.00
2018-09-11T14:32:30.563Z,101131.00
2018-09-11T14:35:00.837Z,101129.00
2018-09-11T14:37:30.774Z,101123.00
2018-09-11T14:40:00.485Z,101124.00
2018-09-11T14:42:30.431Z,101123.00
2018-09-11T14:45:00.821Z,101126.00
2018-09-11T14:47:35.499Z,101125.00
2018-09-11T14:50:05.690Z,101125.00
2018-09-11T14:52:37.170Z,101132.00
2018-09-11T14:55:08.141Z,101122.00
2018-09-11T14:57:38.634Z,101121.00
2018-09-11T15:00:08.322Z,101122.00
2018-09-11T15:02:39.932Z,101127.00
2018-09-11T15:05:10.781Z,101121.00
2018-09-11T15:07:41.699Z,101124.00
2018-09-11T15:10:11.221Z,101128.00
2018-09-11T15:12:41.148Z,101135.00
2018-09-11T15:15:11.785Z,101129.00
2018-09-11T15:17:42.204Z,101134.00
2018-09-11T15:20:12.937Z,101144.00
2018-09-11T15:22:43.349Z,101130.00
2018-09-11T15:25:13.289Z,101151.00
2018-09-11T15:27:43.164Z,101140.00
2018-09-11T15:30:13.941Z,101137.00
2018-09-11T15:32:43.892Z,101146.00
2018-09-11T15:35:13.637Z,101142.00
2018-09-11T15:37:43.339Z,101150.00
2018-09-11T15:40:13.476Z,101141.00
2018-09-11T15:42:43.913Z,101148.00
2018-09-11T15:45:13.756Z,101142.00
2018-09-11T15:47:43.581Z,101144.00
2018-09-11T15:50:13.624Z,101148.00
2018-09-11T15:52:43.411Z,101143.00
2018-09-11T15:55:13.955Z,101133.00
2018-09-11T15:57:44.252Z,101131.00
2018-09-11T16:00:15.541Z,101131.00
2018-09-11T16:02:46.237Z,101133.00
2018-09-11T16:05:16.867Z,101139.00
2018-09-11T16:07:47.041Z,101139.00
2018-09-11T16:10:17.479Z,101133.00
2018-09-11T16:12:48.231Z,101135.00
2018-09-11T16:15:18.183Z,101129.00
2018-09-11T16:17:48.541Z,101140.00
2018-09-11T16:20:18.511Z,101140.00
2018-09-11T16:22:48.423Z,101130.00
2018-09-11T16:25:18.813Z,101128.00
2018-09-11T16:27:49.335Z,101122.00
2018-09-11T16:30:19.650Z,101129.00
2018-09-11T16:32:50.404Z,101123.00
2018-09-11T16:35:21.482Z,101119.00
2018-09-11T16:37:52.132Z,101122.00
2018-09-11T16:40:22.962Z,101117.00
2018-09-11T16:42:53.665Z,101108.00
2018-09-11T16:45:24.419Z,101109.00
2018-09-11T16:47:54.475Z,101104.00
2018-09-11T16:50:24.481Z,101092.00
2018-09-11T16:52:54.812Z,101091.00
2018-09-11T16:55:25.049Z,101099.00
2018-09-11T16:57:55.363Z,101093.00
2018-09-11T17:00:25.836Z,101093.00
2018-09-11T17:02:55.995Z,101095.00
2018-09-11T17:05:26.851Z,101095.00
2018-09-11T17:07:58.271Z,101093.00
2018-09-11T17:10:29.549Z,101091.00
2018-09-11T17:13:00.659Z,101086.00
2018-09-11T17:15:31.211Z,101102.00
2018-09-11T17:18:01.803Z,101099.00
2018-09-11T17:20:31.963Z,101107.00
2018-09-11T17:23:02.104Z,101115.00
2018-09-11T17:25:31.947Z,101117.00
2018-09-11T17:28:01.819Z,101122.00
2018-09-11T17:30:31.237Z,101121.00
2018-09-11T17:33:00.647Z,101117.00
2018-09-11T17:35:30.276Z,101122.00
2018-09-11T17:37:59.918Z,101127.00
2018-09-11T17:40:29.468Z,101128.00
2018-09-11T17:42:58.908Z,101129.00
2018-09-11T17:45:28.080Z,101134.00
2018-09-11T17:47:57.128Z,101139.00
2018-09-11T17:50:26.265Z,101140.00
2018-09-11T17:52:55.488Z,101143.00
2018-09-11T17:55:24.694Z,101146.00
2018-09-11T17:57:53.722Z,101134.00
2018-09-11T18:00:22.916Z,101135.00
2018-09-11T18:02:52.281Z,101136.00
2018-09-11T18:05:21.897Z,101142.00
2018-09-11T18:07:51.024Z,101144.00
2018-09-11T18:10:20.489Z,101147.00
2018-09-11T18:12:49.904Z,101149.00
2018-09-11T18:15:19.496Z,101145.00
2018-09-11T18:17:50.376Z,101140.00
2018-09-11T18:20:20.157Z,101158.00
2018-09-11T18:22:49.907Z,101156.00
2018-09-11T18:25:19.996Z,101161.00
2018-09-11T18:27:49.650Z,101157.00
2018-09-11T18:30:19.538Z,101162.00
2018-09-11T18:32:49.002Z,101160.00
2018-09-11T18:35:18.480Z,101164.00
2018-09-11T18:37:48.124Z,101157.00
2018-09-11T18:40:18.104Z,101165.00
2018-09-11T18:42:48.090Z,101172.00
2018-09-11T18:45:17.453Z,101170.00
2018-09-11T18:47:46.953Z,101182.00
2018-09-11T18:50:16.697Z,101182.00
2018-09-11T18:52:46.500Z,101180.00
2018-09-11T18:55:16.182Z,101195.00
2018-09-11T18:57:45.841Z,101199.00
2018-09-11T19:00:15.502Z,101198.00
2018-09-11T19:02:45.025Z,101190.00
2018-09-11T19:05:14.339Z,101194.00
2018-09-11T19:07:43.838Z,101198.00
2018-09-11T19:10:13.028Z,101195.00
2018-09-11T19:12:42.834Z,101200.00
2018-09-11T19:15:13.001Z,101199.00
2018-09-11T19:17:42.633Z,101205.00
2018-09-11T19:20:12.123Z,101206.00
2018-09-11T19:22:41.750Z,101194.00
2018-09-11T19:25:11.627Z,101201.00
2018-09-11T19:27:41.598Z,101202.00
2018-09-11T19:30:11.853Z,101194.00
2018-09-11T19:32:42.068Z,101201.00
2018-09-11T19:35:11.588Z,101208.00
2018-09-11T19:37:41.025Z,101209.00
2018-09-11T19:40:11.055Z,101193.00
2018-09-11T19:42:42.961Z,101191.00
2018-09-11T19:45:12.378Z,101192.00
2018-09-11T19:47:41.729Z,101191.00
2018-09-11T19:50:11.250Z,101195.00
2018-09-11T19:52:40.598Z,101195.00
2018-09-11T19:55:09.978Z,101196.00
2018-09-11T19:57:39.655Z,101194.00
2018-09-11T20:00:09.028Z,101201.00
2018-09-11T20:02:39.363Z,101196.00
2018-09-11T20:05:09.078Z,101193.00
2018-09-11T20:07:38.584Z,101194.00
2018-09-11T20:10:08.518Z,101195.00
2018-09-11T20:12:37.759Z,101190.00
2018-09-11T20:15:07.397Z,101194.00
2018-09-11T20:17:36.906Z,101190.00
2018-09-11T20:20:06.307Z,101199.00
2018-09-11T20:22:36.187Z,101196.00
2018-09-11T20:25:05.864Z,101189.00
2018-09-11T20:27:35.506Z,101187.00
2018-09-11T20:30:05.325Z,101188.00
2018-09-11T20:32:34.675Z,101179.00
2018-09-11T20:35:04.290Z,101180.00
2018-09-11T20:37:34.128Z,101178.00
2018-09-11T20:40:03.678Z,101178.00
2018-09-11T20:42:33.069Z,101177.00
2018-09-11T20:45:02.386Z,101170.00
2018-09-11T20:47:31.698Z,101189.00
2018-09-11T20:50:01.375Z,101183.00
2018-09-11T20:52:30.801Z,101184.00
2018-09-11T20:55:00.186Z,101178.00
2018-09-11T20:57:29.634Z,101174.00
2018-09-11T20:59:59.313Z,101179.00
2018-09-11T21:02:28.811Z,101173.00
2018-09-11T21:04:58.190Z,101187.00
2018-09-11T21:07:28.004Z,101176.00
2018-09-11T21:09:57.715Z,101189.00
2018-09-11T21:12:27.727Z,101176.00
2018-09-11T21:14:57.118Z,101172.00
2018-09-11T21:17:27.162Z,101179.00
2018-09-11T21:19:56.317Z,101177.00
2018-09-11T21:22:25.593Z,101181.00
2018-09-11T21:24:55.201Z,101178.00
2018-09-11T21:27:24.824Z,101176.00
2018-09-11T21:29:54.565Z,101173.00
2018-09-11T21:32:24.030Z,101178.00
2018-09-11T21:34:53.473Z,101187.00
2018-09-11T21:37:22.686Z,101179.00
2018-09-11T21:39:52.283Z,101176.00
2018-09-11T21:42:21.736Z,101176.00
2018-09-11T21:44:51.111Z,101179.00
2018-09-11T21:47:20.296Z,101178.00
2018-09-11T21:49:50.194Z,101171.00
2018-09-11T21:52:19.674Z,101177.00
2018-09-11T21:54:49.369Z,101178.00
2018-09-11T21:57:19.326Z,101173.00
2018-09-11T21:59:48.782Z,101178.00
2018-09-11T22:02:18.213Z,101167.00
2018-09-11T22:04:47.988Z,101179.00
2018-09-11T22:07:18.120Z,101171.00
2018-09-11T22:09:48.185Z,101169.00
2018-09-11T22:12:17.659Z,101167.00
2018-09-11T22:14:47.094Z,101169.00
2018-09-11T22:17:16.680Z,101167.00
2018-09-11T22:19:46.126Z,101167.00
2018-09-11T22:22:15.472Z,101161.00
2018-09-11T22:24:45.909Z,101161.00
2018-09-11T22:27:15.272Z,101169.00
2018-09-11T22:29:44.601Z,101163.00
2018-09-11T22:32:14.098Z,101161.00
2018-09-11T22:34:43.393Z,101161.00
2018-09-11T22:37:12.735Z,101154.00
2018-09-11T22:39:42.161Z,101166.00
2018-09-11T22:42:11.549Z,101163.00
2018-09-11T22:44:40.724Z,101164.00
2018-09-11T22:47:10.182Z,101157.00
2018-09-11T22:49:39.743Z,101159.00
2018-09-11T22:52:09.302Z,101170.00
2018-09-11T22:54:39.065Z,101158.00
2018-09-11T22:57:08.601Z,101149.00
2018-09-11T22:59:38.044Z,101158.00
2018-09-11T23:02:07.820Z,101163.00
2018-09-11T23:04:37.498Z,101164.00
2018-09-11T23:07:06.899Z,101167.00
2018-09-11T23:09:36.142Z,101164.00
2018-09-11T23:12:06.028Z,101168.00
2018-09-11T23:14:38.726Z,101162.00
2018-09-11T23:17:08.109Z,101148.00
2018-09-11T23:19:38.070Z,101150.00
2018-09-11T23:22:07.806Z,101160.00
2018-09-11T23:24:37.517Z,101154.00
2018-09-11T23:27:07.058Z,101154.00
2018-09-11T23:29:36.393Z,101145.00
2018-09-11T23:32:05.780Z,101159.00
2018-09-11T23:34:35.174Z,101160.00
2018-09-11T23:37:04.828Z,101148.00
2018-09-11T23:39:34.299Z,101150.00
2018-09-11T23:42:03.880Z,101158.00
2018-09-11T23:44:33.204Z,101154.00
2018-09-11T23:47:02.853Z,101168.00
2018-09-11T23:49:32.639Z,101157.00
2018-09-11T23:52:02.359Z,101163.00
2018-09-11T23:54:32.394Z,101162.00
2018-09-11T23:57:02.354Z,101158.00
2018-09-11T23:59:31.763Z,101149.00
